sensor_id;sensor_type;location;lat;lon;timestamp;pressure;altitude;pressure_sealevel;temperature;humidity
80798;BME280;70202;52.238;10.680;2023-09-08T00:00:51;100653.22;;;20.27;65.87
80798;BME280;70202;52.238;10.680;2023-09-08T00:01:51;100660.28;;;20.31;65.75
80798;BME280;70202;52.238;10.680;2023-09-08T00:02:51;100658.19;;;20.21;65.87
80798;BME280;70202;52.238;10.680;2023-09-08T00:03:52;100645.91;;;20.13;65.89
80798;BME280;70202;52.238;10.680;2023-09-08T00:04:53;100642.50;;;20.09;65.96
80798;BME280;70202;52.238;10.680;2023-09-08T00:05:53;100654.47;;;20.10;66.09
80798;BME280;70202;52.238;10.680;2023-09-08T00:06:54;100649.34;;;20.04;66.03
80798;BME280;70202;52.238;10.680;2023-09-08T00:07:54;100674.34;;;20.15;66.23
80798;BME280;70202;52.238;10.680;2023-09-08T00:08:54;100664.06;;;20.04;66.47
80798;BME280;70202;52.238;10.680;2023-09-08T00:09:55;100672.03;;;20.09;66.63
80798;BME280;70202;52.238;10.680;2023-09-08T00:10:56;100663.31;;;20.02;67.20
80798;BME280;70202;52.238;10.680;2023-09-08T00:11:56;100671.59;;;20.02;66.71
80798;BME280;70202;52.238;10.680;2023-09-08T00:12:57;100643.50;;;19.83;66.62
80798;BME280;70202;52.238;10.680;2023-09-08T00:13:57;100613.75;;;19.61;66.95
80798;BME280;70202;52.238;10.680;2023-09-08T00:14:58;100664.72;;;19.95;66.61
80798;BME280;70202;52.238;10.680;2023-09-08T00:15:58;100674.03;;;19.94;67.11
80798;BME280;70202;52.238;10.680;2023-09-08T00:16:58;100656.09;;;19.87;66.77
80798;BME280;70202;52.238;10.680;2023-09-08T00:17:59;100669.59;;;19.91;66.85
80798;BME280;70202;52.238;10.680;2023-09-08T00:19:00;100652.91;;;19.80;67.28
80798;BME280;70202;52.238;10.680;2023-09-08T00:20:00;100648.25;;;19.81;67.31
80798;BME280;70202;52.238;10.680;2023-09-08T00:21:00;100653.13;;;19.77;67.35
80798;BME280;70202;52.238;10.680;2023-09-08T00:22:01;100677.22;;;19.88;67.19
80798;BME280;70202;52.238;10.680;2023-09-08T00:23:02;100674.44;;;19.88;67.04
80798;BME280;70202;52.238;10.680;2023-09-08T00:24:03;100670.94;;;19.86;67.28
80798;BME280;70202;52.238;10.680;2023-09-08T00:25:04;100664.53;;;19.85;67.35
80798;BME280;70202;52.238;10.680;2023-09-08T00:26:05;100649.69;;;19.73;67.33
80798;BME280;70202;52.238;10.680;2023-09-08T00:27:05;100660.63;;;19.75;67.34
80798;BME280;70202;52.238;10.680;2023-09-08T00:28:05;100651.69;;;19.71;67.47
80798;BME280;70202;52.238;10.680;2023-09-08T00:29:07;100652.66;;;19.70;67.97
80798;BME280;70202;52.238;10.680;2023-09-08T00:30:08;100660.94;;;19.70;67.75
80798;BME280;70202;52.238;10.680;2023-09-08T00:31:08;100656.53;;;19.68;67.65
80798;BME280;70202;52.238;10.680;2023-09-08T00:32:08;100663.63;;;19.72;67.72
80798;BME280;70202;52.238;10.680;2023-09-08T00:33:09;100635.47;;;19.53;68.29
80798;BME280;70202;52.238;10.680;2023-09-08T00:34:11;100648.00;;;19.58;68.05
80798;BME280;70202;52.238;10.680;2023-09-08T00:35:12;100632.28;;;19.46;67.99
80798;BME280;70202;52.238;10.680;2023-09-08T00:36:13;100644.78;;;19.52;68.03
80798;BME280;70202;52.238;10.680;2023-09-08T00:37:13;100660.03;;;19.57;68.18
80798;BME280;70202;52.238;10.680;2023-09-08T00:38:14;100644.91;;;19.50;68.25
80798;BME280;70202;52.238;10.680;2023-09-08T00:39:14;100659.94;;;19.59;68.21
80798;BME280;70202;52.238;10.680;2023-09-08T00:40:14;100640.78;;;19.43;68.49
80798;BME280;70202;52.238;10.680;2023-09-08T00:41:15;100660.03;;;19.57;68.77
80798;BME280;70202;52.238;10.680;2023-09-08T00:42:15;100639.22;;;19.39;68.61
80798;BME280;70202;52.238;10.680;2023-09-08T00:43:17;100656.59;;;19.54;68.71
80798;BME280;70202;52.238;10.680;2023-09-08T00:44:17;100640.91;;;19.41;68.64
80798;BME280;70202;52.238;10.680;2023-09-08T00:45:18;100663.13;;;19.53;68.76
80798;BME280;70202;52.238;10.680;2023-09-08T00:46:19;100639.03;;;19.42;68.78
80798;BME280;70202;52.238;10.680;2023-09-08T00:47:19;100668.84;;;19.49;68.71
80798;BME280;70202;52.238;10.680;2023-09-08T00:48:20;100656.03;;;19.48;68.93
80798;BME280;70202;52.238;10.680;2023-09-08T00:49:20;100636.13;;;19.31;69.10
80798;BME280;70202;52.238;10.680;2023-09-08T00:50:21;100641.44;;;19.34;69.00
80798;BME280;70202;52.238;10.680;2023-09-08T00:51:22;100667.31;;;19.45;69.04
80798;BME280;70202;52.238;10.680;2023-09-08T00:52:22;100666.53;;;19.43;69.09
80798;BME280;70202;52.238;10.680;2023-09-08T00:53:23;100612.31;;;19.15;69.08
80798;BME280;70202;52.238;10.680;2023-09-08T00:54:24;100653.38;;;19.34;69.12
80798;BME280;70202;52.238;10.680;2023-09-08T00:55:24;100671.38;;;19.40;69.21
80798;BME280;70202;52.238;10.680;2023-09-08T00:56:25;100652.13;;;19.26;69.15
80798;BME280;70202;52.238;10.680;2023-09-08T00:57:25;100644.03;;;19.22;69.35
80798;BME280;70202;52.238;10.680;2023-09-08T00:58:26;100667.28;;;19.33;69.30
80798;BME280;70202;52.238;10.680;2023-09-08T00:59:27;100663.75;;;19.31;69.41
80798;BME280;70202;52.238;10.680;2023-09-08T01:00:27;100643.81;;;19.13;69.59
80798;BME280;70202;52.238;10.680;2023-09-08T01:01:28;100665.16;;;19.23;69.64
80798;BME280;70202;52.238;10.680;2023-09-08T01:02:29;100660.75;;;19.21;69.72
80798;BME280;70202;52.238;10.680;2023-09-08T01:03:29;100658.19;;;19.18;69.81
80798;BME280;70202;52.238;10.680;2023-09-08T01:04:30;100637.13;;;19.03;69.72
80798;BME280;70202;52.238;10.680;2023-09-08T01:05:30;100648.09;;;19.04;69.84
80798;BME280;70202;52.238;10.680;2023-09-08T01:06:31;100655.25;;;19.07;69.83
80798;BME280;70202;52.238;10.680;2023-09-08T01:07:33;100658.25;;;19.04;69.97
80798;BME280;70202;52.238;10.680;2023-09-08T01:08:34;100652.38;;;18.95;69.96
80798;BME280;70202;52.238;10.680;2023-09-08T01:09:36;100634.88;;;18.82;70.14
80798;BME280;70202;52.238;10.680;2023-09-08T01:10:37;100636.06;;;18.78;70.25
80798;BME280;70202;52.238;10.680;2023-09-08T01:11:37;100651.13;;;18.87;70.40
80798;BME280;70202;52.238;10.680;2023-09-08T01:12:38;100625.22;;;18.75;70.34
80798;BME280;70202;52.238;10.680;2023-09-08T01:13:39;100644.53;;;18.75;70.59
80798;BME280;70202;52.238;10.680;2023-09-08T01:14:39;100652.41;;;18.81;70.60
80798;BME280;70202;52.238;10.680;2023-09-08T01:15:40;100660.59;;;18.83;70.85
80798;BME280;70202;52.238;10.680;2023-09-08T01:16:40;100655.47;;;18.77;70.72
80798;BME280;70202;52.238;10.680;2023-09-08T01:17:41;100640.34;;;18.69;70.91
80798;BME280;70202;52.238;10.680;2023-09-08T01:18:41;100660.91;;;18.78;70.87
80798;BME280;70202;52.238;10.680;2023-09-08T01:19:43;100650.06;;;18.75;70.98
80798;BME280;70202;52.238;10.680;2023-09-08T01:26:07;100627.94;;;18.48;71.14
80798;BME280;70202;52.238;10.680;2023-09-08T01:27:11;100640.53;;;18.52;70.99
80798;BME280;70202;52.238;10.680;2023-09-08T01:28:12;100643.38;;;18.51;71.38
80798;BME280;70202;52.238;10.680;2023-09-08T01:29:14;100648.81;;;18.52;71.91
80798;BME280;70202;52.238;10.680;2023-09-08T01:30:16;100641.81;;;18.46;71.52
80798;BME280;70202;52.238;10.680;2023-09-08T01:31:18;100649.78;;;18.51;71.57
80798;BME280;70202;52.238;10.680;2023-09-08T01:32:18;100649.91;;;18.49;72.00
80798;BME280;70202;52.238;10.680;2023-09-08T01:33:20;100641.94;;;18.45;72.07
80798;BME280;70202;52.238;10.680;2023-09-08T01:34:22;100643.88;;;18.43;72.06
80798;BME280;70202;52.238;10.680;2023-09-08T01:35:23;100572.84;;;18.05;72.14
80798;BME280;70202;52.238;10.680;2023-09-08T01:36:24;100651.97;;;18.46;72.13
80798;BME280;70202;52.238;10.680;2023-09-08T01:37:24;100630.81;;;18.32;72.22
80798;BME280;70202;52.238;10.680;2023-09-08T01:38:24;100619.22;;;18.27;72.27
80798;BME280;70202;52.238;10.680;2023-09-08T01:39:25;100638.00;;;18.35;72.41
80798;BME280;70202;52.238;10.680;2023-09-08T01:40:25;100645.00;;;18.40;72.55
80798;BME280;70202;52.238;10.680;2023-09-08T01:41:25;100617.66;;;18.23;72.39
80798;BME280;70202;52.238;10.680;2023-09-08T01:42:26;100646.06;;;18.38;72.64
80798;BME280;70202;52.238;10.680;2023-09-08T01:43:26;100626.81;;;18.23;72.65
80798;BME280;70202;52.238;10.680;2023-09-08T01:44:27;100618.81;;;18.19;72.58
80798;BME280;70202;52.238;10.680;2023-09-08T01:45:27;100624.34;;;18.19;72.84
80798;BME280;70202;52.238;10.680;2023-09-08T01:46:28;100634.28;;;18.21;72.89
80798;BME280;70202;52.238;10.680;2023-09-08T01:47:29;100633.50;;;18.19;73.08
80798;BME280;70202;52.238;10.680;2023-09-08T01:48:30;100638.59;;;18.26;72.86
80798;BME280;70202;52.238;10.680;2023-09-08T01:49:30;100637.03;;;18.21;72.94
80798;BME280;70202;52.238;10.680;2023-09-08T01:50:30;100634.19;;;18.23;73.24
80798;BME280;70202;52.238;10.680;2023-09-08T01:51:31;100615.75;;;18.09;73.27
80798;BME280;70202;52.238;10.680;2023-09-08T01:52:31;100615.88;;;18.08;73.22
80798;BME280;70202;52.238;10.680;2023-09-08T01:53:31;100627.19;;;18.17;73.36
80798;BME280;70202;52.238;10.680;2023-09-08T01:54:32;100581.94;;;17.93;73.41
80798;BME280;70202;52.238;10.680;2023-09-08T01:55:32;100639.19;;;18.16;73.18
80798;BME280;70202;52.238;10.680;2023-09-08T01:56:33;100613.31;;;18.05;73.45
80798;BME280;70202;52.238;10.680;2023-09-08T01:57:33;100610.56;;;18.05;73.52
80798;BME280;70202;52.238;10.680;2023-09-08T01:58:33;100616.94;;;18.05;73.51
80798;BME280;70202;52.238;10.680;2023-09-08T01:59:34;100623.84;;;18.12;73.75
80798;BME280;70202;52.238;10.680;2023-09-08T02:00:34;100614.31;;;18.04;73.84
80798;BME280;70202;52.238;10.680;2023-09-08T02:01:35;100606.34;;;17.99;73.80
80798;BME280;70202;52.238;10.680;2023-09-08T02:02:36;100611.53;;;18.04;73.69
80798;BME280;70202;52.238;10.680;2023-09-08T02:03:37;100611.06;;;17.97;73.90
80798;BME280;70202;52.238;10.680;2023-09-08T02:04:37;100623.38;;;18.06;73.84
80798;BME280;70202;52.238;10.680;2023-09-08T02:05:38;100601.13;;;17.94;73.86
80798;BME280;70202;52.238;10.680;2023-09-08T02:06:39;100569.25;;;17.76;73.56
80798;BME280;70202;52.238;10.680;2023-09-08T02:07:40;100602.31;;;17.90;73.97
80798;BME280;70202;52.238;10.680;2023-09-08T02:08:40;100604.00;;;17.93;74.32
80798;BME280;70202;52.238;10.680;2023-09-08T02:09:40;100601.41;;;17.90;74.15
80798;BME280;70202;52.238;10.680;2023-09-08T02:10:42;100612.25;;;17.93;74.21
80798;BME280;70202;52.238;10.680;2023-09-08T02:11:42;100601.41;;;17.90;74.20
80798;BME280;70202;52.238;10.680;2023-09-08T02:12:43;100598.84;;;17.87;74.22
80798;BME280;70202;52.238;10.680;2023-09-08T02:13:43;100589.91;;;17.83;74.18
80798;BME280;70202;52.238;10.680;2023-09-08T02:14:43;100620.22;;;17.97;74.18
80798;BME280;70202;52.238;10.680;2023-09-08T02:15:44;100579.47;;;17.74;74.32
80798;BME280;70202;52.238;10.680;2023-09-08T02:16:44;100623.06;;;17.96;74.50
80798;BME280;70202;52.238;10.680;2023-09-08T02:17:44;100600.91;;;17.83;74.42
80798;BME280;70202;52.238;10.680;2023-09-08T02:18:45;100605.34;;;17.86;74.59
80798;BME280;70202;52.238;10.680;2023-09-08T02:19:45;100613.75;;;17.84;74.42
80798;BME280;70202;52.238;10.680;2023-09-08T02:20:46;100601.31;;;17.77;74.47
80798;BME280;70202;52.238;10.680;2023-09-08T02:21:46;100618.06;;;17.88;74.59
80798;BME280;70202;52.238;10.680;2023-09-08T02:22:46;100615.38;;;17.87;74.60
80798;BME280;70202;52.238;10.680;2023-09-08T02:23:50;100571.25;;;17.58;74.59
80798;BME280;70202;52.238;10.680;2023-09-08T02:24:50;100613.22;;;17.78;74.82
80798;BME280;70202;52.238;10.680;2023-09-08T02:25:52;100620.31;;;17.82;74.78
80798;BME280;70202;52.238;10.680;2023-09-08T02:26:52;100607.97;;;17.73;75.00
80798;BME280;70202;52.238;10.680;2023-09-08T02:27:53;100605.41;;;17.70;74.92
80798;BME280;70202;52.238;10.680;2023-09-08T02:28:53;100608.09;;;17.71;75.36
80798;BME280;70202;52.238;10.680;2023-09-08T02:29:53;100613.22;;;17.78;74.96
80798;BME280;70202;52.238;10.680;2023-09-08T02:30:54;100592.03;;;17.64;75.02
80798;BME280;70202;52.238;10.680;2023-09-08T02:31:55;100583.19;;;17.59;74.98
80798;BME280;70202;52.238;10.680;2023-09-08T02:32:55;100605.22;;;17.73;75.07
80798;BME280;70202;52.238;10.680;2023-09-08T02:33:56;100610.22;;;17.66;75.14
80798;BME280;70202;52.238;10.680;2023-09-08T02:34:56;100589.66;;;17.58;75.37
80798;BME280;70202;52.238;10.680;2023-09-08T02:36:03;100622.94;;;17.69;75.55
80798;BME280;70202;52.238;10.680;2023-09-08T02:37:04;100619.28;;;17.68;75.20
80798;BME280;70202;52.238;10.680;2023-09-08T02:38:05;100619.47;;;17.65;75.38
80798;BME280;70202;52.238;10.680;2023-09-08T02:39:05;100598.91;;;17.57;75.66
80798;BME280;70202;52.238;10.680;2023-09-08T02:40:07;100612.50;;;17.60;75.55
80798;BME280;70202;52.238;10.680;2023-09-08T02:41:08;100589.25;;;17.49;75.78
80798;BME280;70202;52.238;10.680;2023-09-08T02:42:08;100607.97;;;17.59;75.72
80798;BME280;70202;52.238;10.680;2023-09-08T02:43:08;100609.75;;;17.60;75.79
80798;BME280;70202;52.238;10.680;2023-09-08T02:44:09;100588.59;;;17.46;75.81
80798;BME280;70202;52.238;10.680;2023-09-08T02:45:09;100582.16;;;17.45;75.88
80798;BME280;70202;52.238;10.680;2023-09-08T02:46:10;100600.28;;;17.49;76.08
80798;BME280;70202;52.238;10.680;2023-09-08T02:47:10;100604.00;;;17.48;75.94
80798;BME280;70202;52.238;10.680;2023-09-08T02:48:11;100605.88;;;17.48;75.63
80798;BME280;70202;52.238;10.680;2023-09-08T02:49:11;100607.34;;;17.54;76.00
80798;BME280;70202;52.238;10.680;2023-09-08T02:50:11;100593.19;;;17.45;75.93
80798;BME280;70202;52.238;10.680;2023-09-08T02:51:12;100583.44;;;17.40;76.06
80798;BME280;70202;52.238;10.680;2023-09-08T02:52:12;100583.44;;;17.40;75.87
80798;BME280;70202;52.238;10.680;2023-09-08T02:53:12;100584.44;;;17.39;75.94
80798;BME280;70202;52.238;10.680;2023-09-08T02:54:13;100570.06;;;17.34;76.10
80798;BME280;70202;52.238;10.680;2023-09-08T02:55:13;100595.56;;;17.52;76.04
80798;BME280;70202;52.238;10.680;2023-09-08T02:56:14;100598.31;;;17.52;76.12
80798;BME280;70202;52.238;10.680;2023-09-08T02:57:14;100572.91;;;17.32;76.01
80798;BME280;70202;52.238;10.680;2023-09-08T02:58:15;100593.81;;;17.51;76.02
80798;BME280;70202;52.238;10.680;2023-09-08T02:59:15;100575.19;;;17.40;76.04
80798;BME280;70202;52.238;10.680;2023-09-08T03:00:16;100581.56;;;17.40;76.37
80798;BME280;70202;52.238;10.680;2023-09-08T03:01:17;100590.72;;;17.41;76.17
80798;BME280;70202;52.238;10.680;2023-09-08T03:02:20;100596.63;;;17.49;75.79
80798;BME280;70202;52.238;10.680;2023-09-08T03:03:20;100561.41;;;17.26;75.91
80798;BME280;70202;52.238;10.680;2023-09-08T03:04:21;100556.19;;;17.21;76.25
80798;BME280;70202;52.238;10.680;2023-09-08T03:05:21;100570.44;;;17.28;75.96
80798;BME280;70202;52.238;10.680;2023-09-08T03:06:21;100596.34;;;17.39;76.26
80798;BME280;70202;52.238;10.680;2023-09-08T03:07:22;100584.81;;;17.33;76.74
80798;BME280;70202;52.238;10.680;2023-09-08T03:08:23;100597.63;;;17.34;76.26
80798;BME280;70202;52.238;10.680;2023-09-08T03:09:23;100565.69;;;17.15;76.60
80798;BME280;70202;52.238;10.680;2023-09-08T03:10:23;100594.75;;;17.35;76.53
80798;BME280;70202;52.238;10.680;2023-09-08T03:11:24;100562.06;;;17.15;76.60
80798;BME280;70202;52.238;10.680;2023-09-08T03:12:24;100592.56;;;17.26;76.59
80798;BME280;70202;52.238;10.680;2023-09-08T03:13:25;100593.16;;;17.31;76.78
80798;BME280;70202;52.238;10.680;2023-09-08T03:14:29;100590.88;;;17.23;76.91
80798;BME280;70202;52.238;10.680;2023-09-08T03:15:29;100580.28;;;17.17;76.88
80798;BME280;70202;52.238;10.680;2023-09-08T03:16:30;100595.31;;;17.26;76.84
80798;BME280;70202;52.238;10.680;2023-09-08T03:17:30;100577.59;;;17.16;76.98
80798;BME280;70202;52.238;10.680;2023-09-08T03:18:32;100593.63;;;17.23;76.98
80798;BME280;70202;52.238;10.680;2023-09-08T03:19:32;100573.19;;;17.13;76.92
80798;BME280;70202;52.238;10.680;2023-09-08T03:20:33;100579.56;;;17.14;77.01
80798;BME280;70202;52.238;10.680;2023-09-08T03:21:33;100577.97;;;17.10;77.02
80798;BME280;70202;52.238;10.680;2023-09-08T03:22:33;100568.13;;;17.06;77.15
80798;BME280;70202;52.238;10.680;2023-09-08T03:24:38;100590.47;;;17.15;77.64
80798;BME280;70202;52.238;10.680;2023-09-08T03:25:38;100572.59;;;17.08;77.33
80798;BME280;70202;52.238;10.680;2023-09-08T03:26:38;100578.09;;;17.08;77.44
80798;BME280;70202;52.238;10.680;2023-09-08T03:27:40;100572.59;;;17.08;77.51
80798;BME280;70202;52.238;10.680;2023-09-08T03:28:42;100562.03;;;17.01;77.59
80798;BME280;70202;52.238;10.680;2023-09-08T03:29:42;100577.38;;;17.05;77.61
80798;BME280;70202;52.238;10.680;2023-09-08T03:30:43;100572.06;;;17.02;77.89
80798;BME280;70202;52.238;10.680;2023-09-08T03:31:43;100563.22;;;16.96;77.76
80798;BME280;70202;52.238;10.680;2023-09-08T03:32:44;100594.50;;;17.10;77.73
80798;BME280;70202;52.238;10.680;2023-09-08T03:33:45;100589.00;;;17.10;77.69
80798;BME280;70202;52.238;10.680;2023-09-08T03:34:45;100564.19;;;16.95;77.80
80798;BME280;70202;52.238;10.680;2023-09-08T03:35:45;100573.03;;;17.01;77.63
80798;BME280;70202;52.238;10.680;2023-09-08T03:36:46;100564.97;;;16.97;77.93
80798;BME280;70202;52.238;10.680;2023-09-08T03:37:47;100589.16;;;17.07;78.02
80798;BME280;70202;52.238;10.680;2023-09-08T03:38:47;100578.72;;;16.97;77.76
80798;BME280;70202;52.238;10.680;2023-09-08T03:39:47;100566.13;;;16.93;77.93
80798;BME280;70202;52.238;10.680;2023-09-08T03:40:48;100565.34;;;16.91;78.02
80798;BME280;70202;52.238;10.680;2023-09-08T03:41:49;100568.13;;;16.91;77.91
80798;BME280;70202;52.238;10.680;2023-09-08T03:42:49;100569.97;;;16.91;78.05
80798;BME280;70202;52.238;10.680;2023-09-08T03:43:49;100561.03;;;16.87;78.08
80798;BME280;70202;52.238;10.680;2023-09-08T03:44:50;100584.06;;;17.01;77.80
80798;BME280;70202;52.238;10.680;2023-09-08T03:45:50;100586.81;;;17.01;77.81
80798;BME280;70202;52.238;10.680;2023-09-08T03:46:50;100571.03;;;16.88;77.89
80798;BME280;70202;52.238;10.680;2023-09-08T03:47:51;100586.88;;;16.99;78.09
80798;BME280;70202;52.238;10.680;2023-09-08T03:48:51;100569.28;;;16.87;78.03
80798;BME280;70202;52.238;10.680;2023-09-08T03:49:54;100569.34;;;16.86;78.25
80798;BME280;70202;52.238;10.680;2023-09-08T03:50:54;100591.72;;;16.95;78.24
80798;BME280;70202;52.238;10.680;2023-09-08T03:51:55;100573.97;;;16.85;78.00
80798;BME280;70202;52.238;10.680;2023-09-08T03:52:55;100587.97;;;16.96;77.98
80798;BME280;70202;52.238;10.680;2023-09-08T03:53:56;100579.28;;;16.88;78.09
80798;BME280;70202;52.238;10.680;2023-09-08T03:54:57;100578.31;;;16.89;78.07
80798;BME280;70202;52.238;10.680;2023-09-08T03:55:57;100567.59;;;16.85;77.90
80798;BME280;70202;52.238;10.680;2023-09-08T03:56:57;100588.09;;;16.95;78.10
80798;BME280;70202;52.238;10.680;2023-09-08T03:57:58;100570.44;;;16.83;78.21
80798;BME280;70202;52.238;10.680;2023-09-08T03:58:58;100570.34;;;16.85;78.33
80798;BME280;70202;52.238;10.680;2023-09-08T03:59:59;100565.13;;;16.80;77.97
80798;BME280;70202;52.238;10.680;2023-09-08T04:00:59;100588.25;;;16.92;78.29
80798;BME280;70202;52.238;10.680;2023-09-08T04:02:00;100572.38;;;16.81;78.21
80798;BME280;70202;52.238;10.680;2023-09-08T04:03:01;100566.81;;;16.83;78.19
80798;BME280;70202;52.238;10.680;2023-09-08T04:04:01;100565.22;;;16.79;78.24
80798;BME280;70202;52.238;10.680;2023-09-08T04:05:02;100571.31;;;16.84;77.93
80798;BME280;70202;52.238;10.680;2023-09-08T04:06:03;100586.56;;;16.89;78.09
80798;BME280;70202;52.238;10.680;2023-09-08T04:07:03;100581.16;;;16.88;78.27
80798;BME280;70202;52.238;10.680;2023-09-08T04:08:04;100559.16;;;16.72;78.06
80798;BME280;70202;52.238;10.680;2023-09-08T04:09:05;100593.16;;;16.87;78.64
80798;BME280;70202;52.238;10.680;2023-09-08T04:10:06;100592.25;;;16.86;78.37
80798;BME280;70202;52.238;10.680;2023-09-08T04:11:07;100577.19;;;16.78;78.26
80798;BME280;70202;52.238;10.680;2023-09-08T04:12:07;100582.50;;;16.81;78.44
80798;BME280;70202;52.238;10.680;2023-09-08T04:13:09;100590.69;;;16.82;78.63
80798;BME280;70202;52.238;10.680;2023-09-08T04:14:09;100573.81;;;16.72;78.74
80798;BME280;70202;52.238;10.680;2023-09-08T04:15:10;100580.22;;;16.73;78.14
80798;BME280;70202;52.238;10.680;2023-09-08T04:16:10;100577.53;;;16.71;78.40
80798;BME280;70202;52.238;10.680;2023-09-08T04:17:11;100564.41;;;16.61;78.38
80798;BME280;70202;52.238;10.680;2023-09-08T04:18:11;100574.00;;;16.69;78.85
80798;BME280;70202;52.238;10.680;2023-09-08T04:19:11;100565.81;;;16.68;78.61
80798;BME280;70202;52.238;10.680;2023-09-08T04:20:12;100561.94;;;16.56;78.88
80798;BME280;70202;52.238;10.680;2023-09-08T04:21:14;100590.25;;;16.74;78.73
80798;BME280;70202;52.238;10.680;2023-09-08T04:22:15;100589.34;;;16.73;78.94
80798;BME280;70202;52.238;10.680;2023-09-08T04:23:15;100583.91;;;16.72;78.92
80798;BME280;70202;52.238;10.680;2023-09-08T04:24:16;100592.16;;;16.72;79.14
80798;BME280;70202;52.238;10.680;2023-09-08T04:25:16;100576.03;;;16.66;78.93
80798;BME280;70202;52.238;10.680;2023-09-08T04:26:17;100567.25;;;16.59;79.18
80798;BME280;70202;52.238;10.680;2023-09-08T04:27:17;100571.97;;;16.57;79.26
80798;BME280;70202;52.238;10.680;2023-09-08T04:28:17;100553.06;;;16.51;79.28
80798;BME280;70202;52.238;10.680;2023-09-08T04:29:18;100581.44;;;16.67;79.28
80798;BME280;70202;52.238;10.680;2023-09-08T04:30:18;100538.19;;;16.39;79.28
80798;BME280;70202;52.238;10.680;2023-09-08T04:31:19;100548.66;;;16.48;79.26
80798;BME280;70202;52.238;10.680;2023-09-08T04:32:22;100552.28;;;16.49;79.51
80798;BME280;70202;52.238;10.680;2023-09-08T04:33:23;100579.56;;;16.68;78.92
80798;BME280;70202;52.238;10.680;2023-09-08T04:34:23;100574.44;;;16.62;78.78
80798;BME280;70202;52.238;10.680;2023-09-08T04:35:24;100579.06;;;16.61;78.98
80798;BME280;70202;52.238;10.680;2023-09-08T04:36:24;100570.19;;;16.56;78.85
80798;BME280;70202;52.238;10.680;2023-09-08T04:37:24;100583.59;;;16.62;78.98
80798;BME280;70202;52.238;10.680;2023-09-08T04:38:25;100550.59;;;16.46;79.39
80798;BME280;70202;52.238;10.680;2023-09-08T04:39:25;100556.66;;;16.37;79.17
80798;BME280;70202;52.238;10.680;2023-09-08T04:40:25;100575.88;;;16.53;79.21
80798;BME280;70202;52.238;10.680;2023-09-08T04:41:26;100558.25;;;16.41;79.39
80798;BME280;70202;52.238;10.680;2023-09-08T04:42:27;100568.69;;;16.50;79.55
80798;BME280;70202;52.238;10.680;2023-09-08T04:43:27;100574.00;;;16.54;79.52
80798;BME280;70202;52.238;10.680;2023-09-08T04:44:27;100560.00;;;16.42;79.38
80798;BME280;70202;52.238;10.680;2023-09-08T04:45:28;100543.06;;;16.34;79.49
80798;BME280;70202;52.238;10.680;2023-09-08T04:46:29;100562.47;;;16.47;79.18
80798;BME280;70202;52.238;10.680;2023-09-08T04:47:29;100574.91;;;16.54;79.45
80798;BME280;70202;52.238;10.680;2023-09-08T04:48:30;100559.00;;;16.43;79.21
80798;BME280;70202;52.238;10.680;2023-09-08T04:49:30;100575.25;;;16.48;79.22
80798;BME280;70202;52.238;10.680;2023-09-08T04:50:31;100556.75;;;16.36;79.15
80798;BME280;70202;52.238;10.680;2023-09-08T04:51:31;100558.41;;;16.38;79.42
80798;BME280;70202;52.238;10.680;2023-09-08T04:52:31;100551.25;;;16.36;79.13
80798;BME280;70202;52.238;10.680;2023-09-08T04:53:32;100566.59;;;16.40;79.54
80798;BME280;70202;52.238;10.680;2023-09-08T04:54:33;100546.97;;;16.30;79.31
80798;BME280;70202;52.238;10.680;2023-09-08T04:55:33;100504.69;;;16.01;79.64
80798;BME280;70202;52.238;10.680;2023-09-08T04:56:34;100564.78;;;16.39;79.41
80798;BME280;70202;52.238;10.680;2023-09-08T04:57:34;100571.38;;;16.36;79.62
80798;BME280;70202;52.238;10.680;2023-09-08T04:58:34;100588.31;;;16.44;79.72
80798;BME280;70202;52.238;10.680;2023-09-08T04:59:35;100575.78;;;16.39;79.75
80798;BME280;70202;52.238;10.680;2023-09-08T05:00:39;100557.19;;;16.28;79.82
80798;BME280;70202;52.238;10.680;2023-09-08T05:01:40;100577.75;;;16.37;79.88
80798;BME280;70202;52.238;10.680;2023-09-08T05:02:40;100589.25;;;16.43;79.63
80798;BME280;70202;52.238;10.680;2023-09-08T05:03:41;100586.00;;;16.37;79.99
80798;BME280;70202;52.238;10.680;2023-09-08T05:04:41;100585.13;;;16.36;79.89
80798;BME280;70202;52.238;10.680;2023-09-08T05:05:41;100595.84;;;16.41;79.74
80798;BME280;70202;52.238;10.680;2023-09-08T05:06:42;100579.91;;;16.32;79.89
80798;BME280;70202;52.238;10.680;2023-09-08T05:07:42;100565.88;;;16.20;80.27
80798;BME280;70202;52.238;10.680;2023-09-08T05:08:42;100583.69;;;16.29;80.11
80798;BME280;70202;52.238;10.680;2023-09-08T05:09:44;100589.81;;;16.34;80.14
80798;BME280;70202;52.238;10.680;2023-09-08T05:10:44;100588.91;;;16.34;80.03
80798;BME280;70202;52.238;10.680;2023-09-08T05:11:44;100604.16;;;16.39;80.13
80798;BME280;70202;52.238;10.680;2023-09-08T05:12:45;100585.41;;;16.32;79.94
80798;BME280;70202;52.238;10.680;2023-09-08T05:13:46;100579.97;;;16.30;80.39
80798;BME280;70202;52.238;10.680;2023-09-08T05:14:46;100578.38;;;16.26;80.16
80798;BME280;70202;52.238;10.680;2023-09-08T05:15:47;100586.00;;;16.37;80.11
80798;BME280;70202;52.238;10.680;2023-09-08T05:16:48;100585.28;;;16.33;80.44
80798;BME280;70202;52.238;10.680;2023-09-08T05:17:55;100599.59;;;16.40;80.23
80798;BME280;70202;52.238;10.680;2023-09-08T05:18:55;100592.28;;;16.39;80.43
80798;BME280;70202;52.238;10.680;2023-09-08T05:19:56;100600.19;;;16.45;80.51